Time;durP1;ratioP1;P1;durP2;ratioP2;P2;SDS_P1;SDS_P2;PMS_P1;PMS_P2;Temp;Humidity;BMP_temperature;BMP_pressure;BME280_temperature;BME280_humidity;BME280_pressure;Samples;Min_cycle;Max_cycle;Signal;HPM_P1;HPM_P2
2022/08/08 00:00:21;;;;;;;1.70;1.60;;;13.00;1.00;;;;;;4952881;29;20188;-77
2022/08/08 00:03:02;;;;;;;1.83;1.73;;;12.90;1.00;;;;;;4953519;28;20210;-77
2022/08/08 00:05:38;;;;;;;2.38;2.00;;;12.50;1.00;;;;;;4953754;29;20209;-77
2022/08/08 00:08:15;;;;;;;2.40;1.70;;;12.20;1.00;;;;;;4953524;29;20182;-78
2022/08/08 00:11:07;;;;;;;2.22;2.03;;;12.00;1.00;;;;;;4953110;28;20358;-79
2022/08/08 00:13:47;;;;;;;2.67;2.10;;;12.00;1.00;;;;;;4953775;28;20958;-78
2022/08/08 00:16:22;;;;;;;2.72;2.10;;;12.10;1.00;;;;;;4953351;29;20181;-77
2022/08/08 00:18:59;;;;;;;2.17;1.98;;;12.20;1.00;;;;;;4953242;28;20196;-77
2022/08/08 00:21:37;;;;;;;1.95;1.85;;;12.30;1.00;;;;;;4952488;29;20180;-77
2022/08/08 00:24:13;;;;;;;1.93;1.73;;;12.40;1.00;;;;;;4952305;28;20237;-77
2022/08/08 00:26:44;;;;;;;3.00;2.30;;;12.40;1.00;;;;;;4953340;28;20211;-77
2022/08/08 00:29:18;;;;;;;2.47;2.27;;;12.50;1.00;;;;;;4953118;29;20182;-77
2022/08/08 00:31:48;;;;;;;2.00;1.90;;;12.50;1.00;;;;;;4952360;29;20287;-77
2022/08/08 00:37:56;;;;;;;3.00;2.33;;;12.50;1.00;;;;;;4953586;29;20184;-78
2022/08/08 00:40:27;;;;;;;2.78;1.95;;;12.40;1.00;;;;;;4953527;29;20708;-77
2022/08/08 00:43:31;;;;;;;3.10;2.42;;;12.40;1.00;;;;;;4952119;28;20617;-78
2022/08/08 00:46:18;;;;;;;3.20;2.20;;;12.40;1.00;;;;;;4952445;29;20215;-77
2022/08/08 00:49:04;;;;;;;3.60;2.60;;;12.50;1.00;;;;;;4942815;29;20182;-77
2022/08/08 00:51:45;;;;;;;4.10;2.73;;;12.40;1.00;;;;;;4941947;28;20178;-77
2022/08/08 00:54:32;;;;;;;2.23;2.03;;;12.30;1.00;;;;;;4951986;29;20220;-77
2022/08/08 00:57:39;;;;;;;3.13;2.47;;;12.20;1.00;;;;;;4952745;29;20196;-79
2022/08/08 01:00:10;;;;;;;4.17;2.37;;;12.20;1.00;;;;;;4945292;29;20675;-78
2022/08/08 01:03:13;;;;;;;2.50;2.30;;;12.20;1.00;;;;;;4957983;28;20710;-78
2022/08/08 01:05:41;;;;;;;3.40;2.40;;;12.30;1.00;;;;;;4951286;29;20209;-77
2022/08/08 01:08:41;;;;;;;3.03;2.50;;;12.20;1.00;;;;;;4952641;28;20559;-77
2022/08/08 01:11:47;;;;;;;3.03;2.50;;;12.20;1.00;;;;;;4951420;29;20194;-77
2022/08/08 01:14:25;;;;;;;2.87;2.60;;;12.10;1.00;;;;;;4951640;29;20196;-76
2022/08/08 01:17:18;;;;;;;3.20;2.67;;;12.10;1.00;;;;;;4953183;29;20182;-78
2022/08/08 01:20:38;;;;;;;3.30;2.60;;;12.10;1.00;;;;;;4952113;28;20224;-77
2022/08/08 01:23:32;;;;;;;2.70;2.43;;;12.00;1.00;;;;;;4955831;28;20221;-78
2022/08/08 01:26:13;;;;;;;3.17;2.40;;;12.10;1.00;;;;;;4952848;29;20201;-77
2022/08/08 01:29:07;;;;;;;2.40;2.20;;;12.00;1.00;;;;;;4952603;29;21039;-77
2022/08/08 01:31:38;;;;;;;3.50;2.53;;;12.00;1.00;;;;;;4950587;28;20209;-77
2022/08/08 01:34:35;;;;;;;2.70;2.50;;;12.00;1.00;;;;;;4943824;29;20194;-77
2022/08/08 01:37:37;;;;;;;2.67;2.40;;;11.90;1.00;;;;;;4951107;29;20217;-78
2022/08/08 01:40:15;;;;;;;3.40;2.50;;;12.00;1.00;;;;;;4952783;29;20663;-78
2022/08/08 01:42:50;;;;;;;4.23;2.33;;;12.00;1.00;;;;;;4951198;29;20742;-77
2022/08/08 01:45:53;;;;;;;2.60;2.40;;;12.00;1.00;;;;;;4956643;28;20231;-77
2022/08/08 01:48:27;;;;;;;2.83;2.40;;;11.90;1.00;;;;;;4949865;29;20189;-78
2022/08/08 01:51:04;;;;;;;2.53;2.33;;;11.90;1.00;;;;;;4952536;28;20196;-78
2022/08/08 01:53:45;;;;;;;3.07;2.67;;;12.00;1.00;;;;;;4952206;29;20197;-77
2022/08/08 01:56:38;;;;;;;2.30;2.10;;;12.00;1.00;;;;;;4967506;28;20652;-78
2022/08/08 01:59:38;;;;;;;4.70;2.20;;;11.90;1.00;;;;;;4951971;29;21176;-77
2022/08/08 02:02:40;;;;;;;2.73;2.30;;;11.80;1.00;;;;;;4942209;29;20267;-78
2022/08/08 02:05:34;;;;;;;3.77;2.30;;;11.80;1.00;;;;;;4952045;28;20200;-78
2022/08/08 02:08:10;;;;;;;2.50;2.30;;;11.80;1.00;;;;;;4951792;29;20182;-77
2022/08/08 02:11:00;;;;;;;3.60;2.53;;;11.80;1.00;;;;;;4951460;29;20184;-77
2022/08/08 02:13:41;;;;;;;3.07;2.33;;;11.90;1.00;;;;;;4951335;29;20205;-76
2022/08/08 02:16:20;;;;;;;2.87;2.57;;;11.80;1.00;;;;;;4942863;29;20181;-76
2022/08/08 02:18:45;;;;;;;3.45;2.53;;;11.80;1.00;;;;;;4951706;29;20189;-78
2022/08/08 02:24:27;;;;;;;2.43;2.23;;;11.60;1.00;;;;;;4953029;29;20249;-77
2022/08/08 02:27:03;;;;;;;2.80;2.50;;;11.60;1.00;;;;;;4951210;29;20209;-77
2022/08/08 02:29:47;;;;;;;2.67;2.20;;;11.60;1.00;;;;;;4951425;28;20181;-77
2022/08/08 02:32:54;;;;;;;4.43;2.90;;;11.50;1.00;;;;;;4950160;28;20212;-79
2022/08/08 02:35:58;;;;;;;2.50;2.30;;;11.50;1.00;;;;;;4931577;29;20194;-78
2022/08/08 02:38:32;;;;;;;3.97;2.60;;;11.50;1.00;;;;;;4950929;29;20552;-77
2022/08/08 02:41:16;;;;;;;2.70;2.50;;;11.50;1.00;;;;;;4950058;28;20198;-77
2022/08/08 02:43:50;;;;;;;3.83;2.40;;;11.50;1.00;;;;;;4951449;28;20201;-77
2022/08/08 02:46:28;;;;;;;2.30;2.10;;;11.40;1.00;;;;;;4951468;29;20209;-78
2022/08/08 02:49:31;;;;;;;2.83;2.40;;;11.40;1.00;;;;;;4951045;29;20547;-78
2022/08/08 02:52:32;;;;;;;3.60;2.30;;;11.40;1.00;;;;;;4951196;29;20213;-78
2022/08/08 02:55:19;;;;;;;2.80;2.50;;;11.40;1.00;;;;;;4958490;28;20221;-77
2022/08/08 02:57:53;;;;;;;3.83;2.53;;;11.40;1.00;;;;;;4940312;29;20181;-77
2022/08/08 03:00:43;;;;;;;2.63;2.33;;;11.40;1.00;;;;;;4944499;29;20189;-78
2022/08/08 03:03:23;;;;;;;2.77;2.20;;;11.40;1.00;;;;;;4943752;29;20214;-76
2022/08/08 03:06:11;;;;;;;2.47;2.27;;;11.40;1.00;;;;;;4941563;29;20217;-77
2022/08/08 03:09:01;;;;;;;2.73;2.53;;;11.30;1.00;;;;;;4949352;29;20208;-77
2022/08/08 03:11:38;;;;;;;2.63;2.20;;;11.20;5.80;;;;;;4950238;29;20213;-77
2022/08/08 03:14:20;;;;;;;2.83;2.37;;;11.20;11.00;;;;;;4949417;29;20197;-77
2022/08/08 03:16:52;;;;;;;2.90;2.43;;;11.20;11.00;;;;;;4949711;28;20193;-77
2022/08/08 03:19:55;;;;;;;3.00;2.40;;;11.20;3.90;;;;;;4949624;29;20197;-77
2022/08/08 03:22:21;;;;;;;2.33;2.13;;;11.20;4.40;;;;;;4950602;29;20205;-78
2022/08/08 03:24:46;;;;;;;2.60;2.40;;;11.40;1.00;;;;;;4951116;28;20638;-78
2022/08/08 03:27:17;;;;;;;2.77;2.40;;;11.40;1.00;;;;;;4951796;28;20700;-77
2022/08/08 03:29:49;;;;;;;4.03;2.63;;;11.30;1.00;;;;;;4952120;28;20182;-78
2022/08/08 03:35:00;;;;;;;2.60;2.40;;;11.00;14.90;;;;;;4951401;29;20847;-77
2022/08/08 03:37:26;;;;;;;2.90;2.43;;;11.10;15.80;;;;;;4950299;29;20276;-77
2022/08/08 03:39:51;;;;;;;3.43;2.80;;;11.10;25.10;;;;;;4949407;28;20190;-77
2022/08/08 03:42:17;;;;;;;3.30;2.70;;;11.10;31.70;;;;;;4951433;28;20220;-77
2022/08/08 03:44:43;;;;;;;3.23;2.90;;;11.20;22.40;;;;;;4952048;28;20236;-77
2022/08/08 03:47:09;;;;;;;4.07;2.70;;;11.20;26.90;;;;;;4955343;28;20216;-78
2022/08/08 03:49:34;;;;;;;3.03;2.63;;;11.20;20.30;;;;;;4954271;28;20193;-77
2022/08/08 03:52:00;;;;;;;3.77;3.10;;;11.30;20.20;;;;;;4954270;28;20639;-77
2022/08/08 03:54:26;;;;;;;2.43;2.23;;;11.30;13.90;;;;;;4952772;29;20226;-77
2022/08/08 03:56:52;;;;;;;3.63;2.40;;;11.10;1.00;;;;;;4954293;28;20196;-77
2022/08/08 03:59:18;;;;;;;2.70;2.50;;;11.00;1.00;;;;;;4953004;29;20209;-77
2022/08/08 04:01:44;;;;;;;2.70;2.40;;;10.70;12.10;;;;;;4953945;28;20652;-78
2022/08/08 04:04:10;;;;;;;3.77;3.00;;;10.40;27.00;;;;;;4954370;28;20291;-78
2022/08/08 04:06:37;;;;;;;2.70;2.50;;;10.20;48.30;;;;;;4954587;28;20210;-78
2022/08/08 04:09:05;;;;;;;2.87;2.67;;;10.00;75.90;;;;;;4953485;28;20185;-78
2022/08/08 04:11:31;;;;;;;3.17;2.83;;;10.00;99.90;;;;;;4953329;28;20557;-77
2022/08/08 04:13:57;;;;;;;2.73;2.10;;;10.20;99.90;;;;;;4953471;28;20197;-77
2022/08/08 04:16:24;;;;;;;2.83;2.40;;;10.40;93.90;;;;;;4954845;28;20722;-78
2022/08/08 04:18:49;;;;;;;2.93;2.40;;;10.60;81.70;;;;;;4953803;28;20217;-78
2022/08/08 04:21:16;;;;;;;2.53;2.30;;;10.60;52.70;;;;;;4954978;28;20228;-78
2022/08/08 04:23:41;;;;;;;3.30;2.37;;;10.50;49.70;;;;;;4954794;28;20292;-78
2022/08/08 04:26:07;;;;;;;5.63;2.90;;;10.50;61.90;;;;;;4954702;28;20940;-78
2022/08/08 04:28:33;;;;;;;4.57;2.87;;;10.50;56.00;;;;;;4954516;28;20188;-78
2022/08/08 04:30:59;;;;;;;3.27;2.70;;;10.50;62.30;;;;;;4953913;28;20193;-77
2022/08/08 04:33:24;;;;;;;2.70;2.50;;;10.60;58.30;;;;;;4953493;28;20232;-77
2022/08/08 04:35:50;;;;;;;3.70;2.70;;;10.70;49.10;;;;;;4953974;28;20185;-77
2022/08/08 04:38:16;;;;;;;5.20;2.60;;;10.70;52.00;;;;;;4953302;28;20566;-77
2022/08/08 04:40:41;;;;;;;2.93;2.30;;;10.80;52.20;;;;;;4957832;28;20244;-77
2022/08/08 04:43:07;;;;;;;3.07;2.50;;;10.80;45.20;;;;;;4967376;28;20221;-77
2022/08/08 04:45:33;;;;;;;3.00;2.70;;;10.90;45.10;;;;;;4953255;28;20280;-77
2022/08/08 04:47:58;;;;;;;2.37;2.17;;;11.00;42.90;;;;;;4953937;28;20229;-77
2022/08/08 04:50:25;;;;;;;3.10;2.70;;;11.10;27.40;;;;;;4953865;28;20185;-78
2022/08/08 04:52:52;;;;;;;2.53;2.33;;;10.70;24.90;;;;;;4953457;28;20205;-76
2022/08/08 04:55:17;;;;;;;3.17;2.87;;;11.40;9.80;;;;;;4952976;28;20186;-77
2022/08/08 04:57:43;;;;;;;3.67;2.63;;;11.40;2.20;;;;;;4952478;28;20248;-77
2022/08/08 05:00:09;;;;;;;2.80;2.60;;;11.40;6.00;;;;;;4953817;28;20189;-76
2022/08/08 05:02:35;;;;;;;4.17;2.50;;;11.40;6.70;;;;;;4952859;29;20580;-77
2022/08/08 05:05:00;;;;;;;2.70;2.50;;;11.60;5.20;;;;;;4952894;28;20186;-77
2022/08/08 05:07:26;;;;;;;3.90;2.97;;;11.70;1.00;;;;;;4953097;28;20584;-77
2022/08/08 05:09:52;;;;;;;2.63;2.40;;;11.80;1.00;;;;;;4951230;28;20190;-77
2022/08/08 05:12:18;;;;;;;2.63;2.38;;;12.00;1.00;;;;;;4952202;28;20278;-78
2022/08/08 05:14:43;;;;;;;3.65;2.30;;;12.70;1.00;;;;;;4952980;28;20555;-77
2022/08/08 05:17:09;;;;;;;2.53;2.10;;;13.80;1.00;;;;;;4951826;28;20260;-77
2022/08/08 05:19:36;;;;;;;3.40;1.95;;;14.60;1.00;;;;;;4951768;28;20568;-78
2022/08/08 05:22:07;;;;;;;2.47;1.60;;;15.60;99.90;;;;;;4952419;29;20625;-78
2022/08/08 05:24:32;;;;;;;2.22;1.85;;;16.80;1.00;;;;;;4952344;29;20190;-77
2022/08/08 05:26:58;;;;;;;2.33;1.40;;;17.80;99.90;;;;;;4953665;28;20661;-78
2022/08/08 05:29:25;;;;;;;2.15;1.50;;;18.40;1.00;;;;;;4953485;28;20209;-77
2022/08/08 05:31:50;;;;;;;1.52;1.42;;;18.90;1.00;;;;;;4953770;28;20189;-77
2022/08/08 05:34:24;;;;;;;1.75;1.50;;;19.40;1.00;;;;;;4954156;28;20193;-78
2022/08/08 05:36:51;;;;;;;1.90;1.48;;;19.70;99.90;;;;;;4954142;28;20197;-78
2022/08/08 05:39:20;;;;;;;1.75;1.50;;;20.00;99.90;;;;;;4953732;29;20676;-78
2022/08/08 05:41:49;;;;;;;2.33;1.50;;;20.40;3.70;;;;;;4952828;28;20193;-77
2022/08/08 05:44:28;;;;;;;2.17;1.60;;;20.90;1.00;;;;;;4954432;28;20185;-78
2022/08/08 05:46:55;;;;;;;2.20;1.55;;;20.80;1.00;;;;;;4953668;29;20237;-78
2022/08/08 05:49:21;;;;;;;1.88;1.52;;;20.90;1.00;;;;;;4951653;29;20621;-76
2022/08/08 05:51:47;;;;;;;3.13;1.45;;;21.10;1.00;;;;;;4952409;28;20189;-76
2022/08/08 05:54:13;;;;;;;3.78;1.77;;;21.30;1.00;;;;;;4953676;28;20178;-77
2022/08/08 05:56:41;;;;;;;2.30;1.67;;;21.70;99.90;;;;;;4954156;28;20190;-78
2022/08/08 05:59:20;;;;;;;2.58;2.00;;;21.70;99.90;;;;;;4953497;29;20480;-76
2022/08/08 06:01:53;;;;;;;3.75;1.70;;;21.70;99.90;;;;;;4953170;29;20200;-77
2022/08/08 06:04:26;;;;;;;3.75;1.80;;;21.60;99.90;;;;;;4953569;28;20185;-78
2022/08/08 06:06:54;;;;;;;3.65;2.15;;;21.50;99.90;;;;;;4951824;28;20966;-77
2022/08/08 06:09:27;;;;;;;1.95;1.70;;;21.60;99.90;;;;;;4953967;28;20194;-78
2022/08/08 06:11:58;;;;;;;2.75;1.48;;;21.90;99.90;;;;;;4951927;29;20201;-75
2022/08/08 06:14:25;;;;;;;2.50;1.80;;;22.50;99.90;;;;;;4951790;29;20228;-76
2022/08/08 06:16:52;;;;;;;1.65;1.33;;;22.60;99.90;;;;;;4950207;28;20193;-77
2022/08/08 06:19:18;;;;;;;1.70;1.60;;;22.60;99.90;;;;;;4956369;28;20189;-77
2022/08/08 06:21:47;;;;;;;2.85;1.70;;;22.80;99.90;;;;;;4951316;28;20193;-77
2022/08/08 06:24:13;;;;;;;4.15;1.88;;;23.10;99.90;;;;;;4951098;29;20188;-76
2022/08/08 06:26:42;;;;;;;1.98;1.80;;;23.20;99.90;;;;;;4950222;29;20209;-77
2022/08/08 06:29:08;;;;;;;4.20;2.10;;;23.20;99.90;;;;;;4950665;29;20656;-76
2022/08/08 06:31:36;;;;;;;3.13;1.98;;;23.40;99.90;;;;;;4951386;28;20185;-77
2022/08/08 06:34:12;;;;;;;4.57;1.98;;;23.60;99.90;;;;;;4951274;28;20260;-76
2022/08/08 06:36:40;;;;;;;2.50;1.98;;;23.20;99.90;;;;;;4950813;29;20178;-77
2022/08/08 06:39:10;;;;;;;2.60;1.70;;;22.80;99.90;;;;;;4951007;28;20209;-76
2022/08/08 06:41:51;;;;;;;3.03;1.60;;;22.70;99.90;;;;;;4955284;28;20196;-76
2022/08/08 06:44:22;;;;;;;4.10;1.90;;;22.90;99.90;;;;;;4950487;29;20224;-76
2022/08/08 06:46:48;;;;;;;2.60;2.03;;;23.00;99.90;;;;;;4949088;29;20559;-77
2022/08/08 06:49:14;;;;;;;3.92;2.20;;;22.80;99.90;;;;;;4949539;29;20186;-76
2022/08/08 06:51:39;;;;;;;1.80;1.60;;;22.60;99.90;;;;;;4949884;28;20225;-77
2022/08/08 06:54:07;;;;;;;5.28;2.20;;;22.80;99.90;;;;;;4949933;29;20189;-75
2022/08/08 06:56:34;;;;;;;3.50;1.70;;;22.90;99.90;;;;;;4950929;28;20791;-75
2022/08/08 06:59:00;;;;;;;2.33;1.95;;;23.50;99.90;;;;;;4950448;29;20184;-75
2022/08/08 07:01:28;;;;;;;3.60;1.90;;;23.50;99.90;;;;;;4951090;28;20186;-77
2022/08/08 07:04:21;;;;;;;3.20;1.80;;;23.50;99.90;;;;;;4949780;28;20590;-76
2022/08/08 07:06:53;;;;;;;3.53;2.00;;;23.70;99.90;;;;;;4946879;28;20216;-76
2022/08/08 07:09:19;;;;;;;3.03;1.77;;;23.80;99.90;;;;;;4950067;29;20177;-75
2022/08/08 07:11:49;;;;;;;2.78;1.70;;;24.20;99.90;;;;;;4950254;28;20408;-77
2022/08/08 07:14:51;;;;;;;3.00;1.67;;;24.20;99.90;;;;;;4950297;29;20185;-76
2022/08/08 07:17:18;;;;;;;2.60;2.00;;;24.20;99.90;;;;;;4950174;29;20181;-76
2022/08/08 07:20:00;;;;;;;2.63;1.63;;;23.90;99.90;;;;;;4950967;28;21068;-77
2022/08/08 07:23:18;;;;;;;2.85;2.55;;;23.90;99.90;;;;;;4953914;29;20251;-77
2022/08/08 07:25:45;;;;;;;2.22;2.05;;;23.60;99.90;;;;;;4901257;28;20668;-77
2022/08/08 07:28:18;;;;;;;4.40;2.13;;;23.00;99.90;;;;;;4953666;29;20174;-77
2022/08/08 07:30:44;;;;;;;3.17;2.08;;;22.30;99.90;;;;;;4961829;28;20237;-77
2022/08/08 07:33:14;;;;;;;2.95;1.90;;;22.00;99.90;;;;;;4953897;28;20670;-77
2022/08/08 07:35:40;;;;;;;2.47;1.55;;;21.90;99.90;;;;;;4953902;29;20264;-77
2022/08/08 07:38:08;;;;;;;2.85;1.77;;;21.80;1.00;;;;;;4954113;28;20205;-77
2022/08/08 07:40:34;;;;;;;3.55;2.00;;;21.60;1.00;;;;;;4952758;29;20563;-77
2022/08/08 07:43:02;;;;;;;2.83;2.30;;;21.50;1.00;;;;;;4954077;28;20213;-78
2022/08/08 07:45:28;;;;;;;2.72;2.20;;;21.40;1.00;;;;;;4952887;29;20220;-78
2022/08/08 07:47:57;;;;;;;2.22;1.55;;;21.60;1.00;;;;;;4953553;29;20621;-77
2022/08/08 07:50:24;;;;;;;2.15;1.95;;;21.50;1.00;;;;;;4952323;29;20185;-78
2022/08/08 07:52:53;;;;;;;4.40;2.05;;;21.50;1.00;;;;;;4952978;28;20213;-77
2022/08/08 07:55:27;;;;;;;3.15;1.92;;;21.50;1.00;;;;;;4960193;28;20192;-78
2022/08/08 07:58:02;;;;;;;2.95;2.00;;;21.70;99.90;;;;;;4954160;28;20181;-77
2022/08/08 08:00:37;;;;;;;1.73;1.60;;;21.90;99.90;;;;;;4953059;29;20538;-77
2022/08/08 08:03:09;;;;;;;2.63;1.70;;;22.00;99.90;;;;;;4951845;29;20211;-77
2022/08/08 08:05:43;;;;;;;2.33;1.77;;;21.90;99.90;;;;;;4953558;29;20228;-78
2022/08/08 08:08:26;;;;;;;3.85;2.08;;;21.50;99.90;;;;;;4953213;29;20181;-77
2022/08/08 08:10:56;;;;;;;2.72;1.58;;;21.80;99.90;;;;;;4953213;29;20189;-77
2022/08/08 08:13:42;;;;;;;1.77;1.40;;;21.80;99.90;;;;;;4953137;29;20206;-77
2022/08/08 08:16:12;;;;;;;1.70;1.52;;;21.80;99.90;;;;;;4968104;28;20194;-77
2022/08/08 08:18:42;;;;;;;3.00;1.77;;;21.90;99.90;;;;;;4952802;29;20539;-77
2022/08/08 08:21:08;;;;;;;1.95;1.70;;;22.20;99.90;;;;;;4953136;28;20204;-77
2022/08/08 08:23:35;;;;;;;2.40;1.63;;;22.20;99.90;;;;;;4953291;28;20212;-77
2022/08/08 08:26:01;;;;;;;2.67;1.33;;;22.20;99.90;;;;;;4957494;28;20611;-78
2022/08/08 08:28:26;;;;;;;1.88;1.40;;;22.30;99.90;;;;;;4953026;28;20185;-77
2022/08/08 08:30:53;;;;;;;2.00;1.80;;;22.50;99.90;;;;;;4951711;28;20304;-78
2022/08/08 08:33:19;;;;;;;1.50;1.35;;;22.50;99.90;;;;;;4952629;29;20280;-77
2022/08/08 08:35:45;;;;;;;2.28;1.73;;;22.30;99.90;;;;;;4953262;28;20202;-77
2022/08/08 08:38:10;;;;;;;2.20;1.40;;;22.20;99.90;;;;;;4952498;28;20633;-78
2022/08/08 08:40:36;;;;;;;2.85;1.67;;;22.40;99.90;;;;;;4952225;28;21184;-77
2022/08/08 08:43:03;;;;;;;1.40;1.30;;;22.60;97.90;;;;;;4952050;28;20219;-77
2022/08/08 08:45:30;;;;;;;2.05;1.25;;;22.30;80.60;;;;;;4952454;28;20284;-77
2022/08/08 08:47:55;;;;;;;2.20;1.40;;;22.30;91.20;;;;;;4951704;29;20234;-78
2022/08/08 08:50:23;;;;;;;2.90;1.38;;;22.50;85.40;;;;;;4952928;28;20601;-77
2022/08/08 08:52:48;;;;;;;2.05;1.30;;;22.60;66.20;;;;;;4950929;28;20213;-76
2022/08/08 08:55:16;;;;;;;1.33;1.23;;;22.70;62.60;;;;;;4951251;28;20185;-77
2022/08/08 08:57:43;;;;;;;2.47;1.23;;;22.70;63.00;;;;;;4957632;28;20190;-77
2022/08/08 09:00:10;;;;;;;1.73;1.20;;;22.90;62.10;;;;;;4951755;29;20663;-78
2022/08/08 09:02:41;;;;;;;1.48;1.38;;;23.00;64.30;;;;;;4956517;28;20304;-78
2022/08/08 09:05:08;;;;;;;1.35;1.20;;;22.90;29.90;;;;;;4951338;29;20212;-77
2022/08/08 09:07:35;;;;;;;1.73;1.58;;;22.90;42.20;;;;;;4952703;28;20268;-77
2022/08/08 09:10:01;;;;;;;1.77;1.60;;;22.80;39.80;;;;;;4952575;28;20186;-77
2022/08/08 09:12:30;;;;;;;1.42;1.20;;;23.00;36.70;;;;;;4952977;29;20220;-78
2022/08/08 09:14:57;;;;;;;1.85;1.17;;;23.00;31.80;;;;;;4952058;29;20186;-78
2022/08/08 09:17:25;;;;;;;2.10;1.60;;;23.00;37.70;;;;;;4952918;28;20196;-78
2022/08/08 09:19:58;;;;;;;2.67;1.63;;;23.10;43.10;;;;;;4952878;28;20198;-77
2022/08/08 09:22:25;;;;;;;2.30;1.75;;;23.20;39.90;;;;;;4952057;29;20210;-78
2022/08/08 09:24:52;;;;;;;2.10;1.42;;;23.30;38.70;;;;;;4952513;28;20212;-78
2022/08/08 09:27:19;;;;;;;2.22;1.48;;;23.30;34.10;;;;;;4952455;28;20252;-78
2022/08/08 09:30:03;;;;;;;2.05;1.58;;;23.50;26.60;;;;;;4966902;28;20189;-78
2022/08/08 09:32:36;;;;;;;2.35;1.50;;;23.30;22.00;;;;;;4952492;28;20283;-76
2022/08/08 09:35:06;;;;;;;1.60;1.50;;;23.40;27.10;;;;;;4951731;29;20181;-77
2022/08/08 09:37:44;;;;;;;2.00;1.40;;;23.60;33.00;;;;;;4951987;28;20683;-77
2022/08/08 09:40:11;;;;;;;3.08;1.52;;;23.80;32.10;;;;;;4951018;29;20193;-77
2022/08/08 09:42:43;;;;;;;2.33;1.40;;;23.70;22.30;;;;;;4951880;28;20216;-77
2022/08/08 09:45:19;;;;;;;2.63;1.50;;;23.50;13.70;;;;;;4950934;29;20182;-76
2022/08/08 09:47:45;;;;;;;2.17;1.60;;;23.40;12.50;;;;;;4951873;28;20205;-77
2022/08/08 09:50:14;;;;;;;3.17;1.20;;;23.30;12.40;;;;;;4950589;28;20182;-77
2022/08/08 09:52:45;;;;;;;1.40;1.30;;;23.30;21.80;;;;;;4951637;28;20197;-77
2022/08/08 09:55:11;;;;;;;2.53;1.20;;;23.30;20.00;;;;;;4940472;28;20186;-77
2022/08/08 09:57:38;;;;;;;2.35;1.40;;;23.40;11.00;;;;;;4949628;28;20666;-77
2022/08/08 10:00:07;;;;;;;1.48;1.02;;;23.40;15.10;;;;;;4950639;28;20559;-77
2022/08/08 10:02:38;;;;;;;1.80;1.20;;;23.40;12.90;;;;;;4950625;29;20212;-77
2022/08/08 10:05:11;;;;;;;2.47;1.20;;;23.40;8.70;;;;;;4950964;28;20196;-77
2022/08/08 10:07:48;;;;;;;1.85;1.45;;;23.30;5.30;;;;;;4950951;29;20197;-77
2022/08/08 10:10:22;;;;;;;1.73;1.45;;;23.40;2.10;;;;;;4950249;28;20267;-78
2022/08/08 10:12:48;;;;;;;2.85;1.35;;;23.40;1.00;;;;;;4965256;28;20213;-77
2022/08/08 10:15:13;;;;;;;1.90;1.40;;;23.70;1.00;;;;;;4951076;28;20184;-77
2022/08/08 10:17:47;;;;;;;1.58;1.13;;;24.30;1.00;;;;;;4949873;28;20607;-77
2022/08/08 10:20:13;;;;;;;3.08;1.20;;;24.10;1.00;;;;;;4949303;28;20189;-77
2022/08/08 10:22:57;;;;;;;1.65;1.13;;;24.30;1.00;;;;;;4951349;28;20209;-77
2022/08/08 10:25:23;;;;;;;1.27;1.10;;;24.20;1.00;;;;;;4951756;29;20259;-77
2022/08/08 10:27:52;;;;;;;1.30;1.20;;;24.40;1.00;;;;;;4956913;28;20284;-77
2022/08/08 10:30:18;;;;;;;2.30;1.17;;;24.60;1.00;;;;;;4951302;29;20687;-77
2022/08/08 10:32:50;;;;;;;1.00;0.90;;;24.70;1.00;;;;;;4950768;28;20205;-77
2022/08/08 10:35:19;;;;;;;2.25;1.35;;;24.70;1.00;;;;;;4950986;29;20181;-77
2022/08/08 10:38:15;;;;;;;3.00;1.50;;;24.80;1.00;;;;;;4950982;28;20569;-77
2022/08/08 10:40:44;;;;;;;2.80;1.58;;;25.10;1.00;;;;;;4946436;29;20233;-77
2022/08/08 10:43:10;;;;;;;2.22;1.30;;;25.20;1.00;;;;;;4950813;28;20204;-77
2022/08/08 10:45:43;;;;;;;2.10;1.40;;;25.10;1.00;;;;;;4951032;28;20188;-77
2022/08/08 10:48:10;;;;;;;1.30;1.20;;;25.00;1.00;;;;;;4950698;29;20189;-77
2022/08/08 10:50:37;;;;;;;1.92;1.30;;;24.70;1.00;;;;;;4950628;29;20178;-77
2022/08/08 10:53:15;;;;;;;1.73;1.20;;;25.10;1.00;;;;;;4951171;29;20581;-77
2022/08/08 10:55:41;;;;;;;1.88;1.38;;;24.80;1.00;;;;;;4949117;28;20192;-78
2022/08/08 10:58:09;;;;;;;1.63;1.33;;;24.40;1.00;;;;;;4950066;29;20185;-78
2022/08/08 11:00:42;;;;;;;1.45;1.08;;;24.50;1.00;;;;;;4950547;29;20181;-77
2022/08/08 11:03:13;;;;;;;1.67;1.33;;;24.60;1.00;;;;;;4955046;28;20205;-77
2022/08/08 11:05:56;;;;;;;1.45;1.20;;;24.60;1.00;;;;;;4951221;29;20683;-76
2022/08/08 11:08:30;;;;;;;1.88;1.20;;;24.80;1.00;;;;;;4950784;29;20197;-77
2022/08/08 11:11:06;;;;;;;1.90;1.10;;;24.80;1.00;;;;;;4951484;29;20193;-77
2022/08/08 11:13:43;;;;;;;2.65;1.10;;;25.10;1.00;;;;;;4951153;29;20209;-77
2022/08/08 11:16:23;;;;;;;1.58;1.15;;;25.10;1.00;;;;;;4949378;28;20184;-77
2022/08/08 11:18:49;;;;;;;1.80;1.27;;;25.20;1.00;;;;;;4950515;28;20672;-78
2022/08/08 11:21:15;;;;;;;1.50;1.38;;;25.10;1.00;;;;;;4950353;29;20742;-77
2022/08/08 11:23:42;;;;;;;1.98;1.48;;;25.10;1.00;;;;;;4951931;28;20210;-77
2022/08/08 11:26:11;;;;;;;1.23;1.10;;;25.20;1.00;;;;;;4950924;29;20280;-77
2022/08/08 11:28:39;;;;;;;2.55;1.30;;;25.40;1.00;;;;;;4950283;28;20201;-76
2022/08/08 11:31:05;;;;;;;1.20;1.10;;;25.40;1.00;;;;;;4949897;29;20186;-76
2022/08/08 11:33:33;;;;;;;2.28;1.30;;;25.50;1.00;;;;;;4951722;28;20341;-77
2022/08/08 11:35:59;;;;;;;1.30;1.17;;;25.50;1.00;;;;;;4951452;28;20213;-77
2022/08/08 11:38:25;;;;;;;1.27;1.17;;;25.50;1.00;;;;;;4951385;28;20213;-78
2022/08/08 11:40:52;;;;;;;1.52;1.35;;;25.40;1.00;;;;;;4950634;29;20196;-78
2022/08/08 11:43:18;;;;;;;2.00;1.30;;;25.40;1.00;;;;;;4950241;28;20220;-77
2022/08/08 11:45:45;;;;;;;2.75;1.25;;;25.50;1.00;;;;;;4952566;28;20217;-77
2022/08/08 11:48:13;;;;;;;1.70;1.17;;;25.50;1.00;;;;;;4952688;28;20691;-78
2022/08/08 11:50:39;;;;;;;1.50;1.00;;;25.50;1.00;;;;;;4951862;28;20189;-77
2022/08/08 11:53:07;;;;;;;1.20;1.10;;;25.60;1.00;;;;;;4952741;28;20205;-76
2022/08/08 11:55:34;;;;;;;1.55;1.10;;;25.50;1.00;;;;;;4951454;29;20194;-78
2022/08/08 11:58:11;;;;;;;2.40;1.27;;;25.50;1.00;;;;;;4949793;28;20244;-77
2022/08/08 12:00:55;;;;;;;1.45;1.23;;;25.50;1.00;;;;;;4951890;28;20304;-77
2022/08/08 12:03:32;;;;;;;1.77;1.30;;;25.40;1.00;;;;;;4965760;28;20256;-76
2022/08/08 12:05:58;;;;;;;1.98;0.90;;;25.50;1.00;;;;;;4951904;28;20211;-75
2022/08/08 12:08:35;;;;;;;2.15;1.20;;;25.60;1.00;;;;;;4955109;28;20181;-78
2022/08/08 12:11:15;;;;;;;1.20;1.10;;;25.90;1.00;;;;;;4954022;28;20192;-78
2022/08/08 12:13:41;;;;;;;1.20;1.10;;;25.70;1.00;;;;;;4954005;28;20228;-76
2022/08/08 12:16:12;;;;;;;2.60;1.10;;;25.70;1.00;;;;;;4954172;28;20193;-76
2022/08/08 12:18:49;;;;;;;1.63;1.27;;;25.60;1.00;;;;;;4953341;29;20445;-78
2022/08/08 12:21:32;;;;;;;2.08;1.20;;;25.50;1.00;;;;;;4954177;28;20236;-76
2022/08/08 12:24:04;;;;;;;1.27;0.90;;;25.70;1.00;;;;;;4953544;28;20205;-76
2022/08/08 12:26:48;;;;;;;1.20;1.10;;;25.70;1.00;;;;;;4950673;28;20216;-76
2022/08/08 12:29:26;;;;;;;1.88;1.02;;;25.60;1.00;;;;;;4953808;28;20683;-77
2022/08/08 12:32:13;;;;;;;2.55;1.10;;;25.70;1.00;;;;;;4953731;28;20196;-77
2022/08/08 12:34:39;;;;;;;1.20;1.10;;;25.80;1.00;;;;;;4952382;28;20598;-77
2022/08/08 12:37:07;;;;;;;2.35;1.02;;;26.00;1.00;;;;;;4953519;29;20200;-77
2022/08/08 12:39:33;;;;;;;2.38;1.13;;;26.00;1.00;;;;;;4917350;28;1041929;-78
2022/08/08 12:41:59;;;;;;;1.65;1.20;;;26.10;1.00;;;;;;4953950;29;20241;-78
2022/08/08 12:44:29;;;;;;;1.58;1.15;;;26.10;1.00;;;;;;4955047;28;20249;-78
2022/08/08 12:46:56;;;;;;;2.15;1.20;;;26.20;1.00;;;;;;4955397;28;20637;-78
2022/08/08 12:49:30;;;;;;;2.33;1.55;;;26.20;1.00;;;;;;4953451;29;20364;-76
2022/08/08 12:51:57;;;;;;;1.90;1.10;;;26.10;1.00;;;;;;4955529;29;20209;-76
2022/08/08 12:54:28;;;;;;;4.28;1.10;;;25.90;1.00;;;;;;4954829;29;20185;-78
2022/08/08 12:56:54;;;;;;;1.67;1.20;;;26.00;1.00;;;;;;4955206;29;20189;-78
2022/08/08 12:59:21;;;;;;;1.70;1.27;;;25.90;1.00;;;;;;4955221;28;20666;-78
2022/08/08 13:01:59;;;;;;;2.92;1.15;;;26.00;1.00;;;;;;4954790;28;20193;-78
2022/08/08 13:04:27;;;;;;;1.20;1.00;;;26.10;1.00;;;;;;4959583;28;20197;-76
2022/08/08 13:07:03;;;;;;;1.83;1.10;;;26.20;1.00;;;;;;4954602;28;20631;-76
2022/08/08 13:09:39;;;;;;;1.10;1.00;;;26.10;1.00;;;;;;4953480;29;20566;-76
2022/08/08 13:12:18;;;;;;;2.38;1.10;;;26.10;1.00;;;;;;4967046;28;20197;-76
2022/08/08 13:14:49;;;;;;;1.55;0.98;;;26.30;1.00;;;;;;4954042;29;20264;-77
2022/08/08 13:17:17;;;;;;;1.98;1.20;;;26.40;1.00;;;;;;4958517;28;20683;-78
2022/08/08 13:19:45;;;;;;;1.33;1.17;;;26.60;1.00;;;;;;4955025;28;20268;-76
2022/08/08 13:22:15;;;;;;;2.10;1.10;;;26.60;1.00;;;;;;4955284;28;20205;-76
2022/08/08 13:24:41;;;;;;;1.30;1.17;;;26.40;1.00;;;;;;4954859;28;20209;-77
2022/08/08 13:27:08;;;;;;;2.50;1.27;;;26.30;1.00;;;;;;4955593;28;20568;-78
2022/08/08 13:29:36;;;;;;;1.48;1.20;;;26.40;1.00;;;;;;4953558;29;20638;-78
2022/08/08 13:32:03;;;;;;;2.15;1.10;;;26.20;1.00;;;;;;4960374;28;20548;-77